createdAt,value
2023-04-16T00:00:25.875Z,5.400
2023-04-16T00:01:26.867Z,5.5
2023-04-16T00:02:23.735Z,5.300
2023-04-16T00:04:23.890Z,5.699
2023-04-16T00:05:24.661Z,5.5
2023-04-16T00:06:23.913Z,5.800
2023-04-16T00:07:24.018Z,5.400
2023-04-16T00:08:24.388Z,5
2023-04-16T00:09:23.493Z,5.699
2023-04-16T00:10:24.159Z,5.099
2023-04-16T00:11:23.584Z,5.400
2023-04-16T00:12:23.643Z,5.199
2023-04-16T00:13:23.797Z,5.699
2023-04-16T00:14:24.069Z,5.400
2023-04-16T00:17:28.063Z,5.300
2023-04-16T00:18:23.283Z,5.400
2023-04-16T00:19:23.306Z,5.099
2023-04-16T00:20:24.295Z,5.199
2023-04-16T00:21:24.374Z,5.599
2023-04-16T00:22:23.392Z,6.099
2023-04-16T00:23:23.649Z,5.400
2023-04-16T00:24:23.883Z,5.099
2023-04-16T00:26:23.565Z,5.800
2023-04-16T00:27:23.992Z,5.5
2023-04-16T00:29:23.784Z,5.699
2023-04-16T00:30:24.381Z,5.400
2023-04-16T00:31:23.511Z,5.599
2023-04-16T00:32:23.778Z,5.800
2023-04-16T00:33:24.447Z,6
2023-04-16T00:34:23.643Z,6.300
2023-04-16T00:35:24.340Z,6.599
2023-04-16T00:36:23.269Z,6
2023-04-16T00:37:23.477Z,5.900
2023-04-16T00:38:23.269Z,6.400
2023-04-16T00:39:23.455Z,6.099
2023-04-16T00:40:23.564Z,5.599
2023-04-16T00:41:23.744Z,5.800
2023-04-16T00:42:23.833Z,6.199
2023-04-16T00:43:23.732Z,6.300
2023-04-16T00:44:23.792Z,6
2023-04-16T00:45:24.526Z,6.699
2023-04-16T00:46:24.435Z,6.400
2023-04-16T00:47:23.949Z,7
2023-04-16T00:48:24.288Z,6.599
2023-04-16T00:49:23.938Z,7
2023-04-16T00:50:24.467Z,6.5
2023-04-16T00:51:23.702Z,6.900
2023-04-16T00:52:24.096Z,7.199
2023-04-16T00:53:23.890Z,6.400
2023-04-16T00:54:23.815Z,6.199
2023-04-16T00:55:24.367Z,6.900
2023-04-16T00:56:23.532Z,6.599
2023-04-16T00:57:23.834Z,6.300
2023-04-16T00:58:23.929Z,7.099
2023-04-16T00:59:24.346Z,7
2023-04-16T01:01:23.695Z,6.900
2023-04-16T01:03:23.661Z,6.300
2023-04-16T01:04:24.152Z,6.699
2023-04-16T01:05:24.379Z,7.400
2023-04-16T01:06:23.930Z,6.400
2023-04-16T01:07:23.831Z,7
2023-04-16T01:08:23.694Z,6.699
2023-04-16T01:09:23.915Z,6.900
2023-04-16T01:10:24.128Z,7
2023-04-16T01:11:24.017Z,7.199
2023-04-16T01:12:23.899Z,7.400
2023-04-16T01:14:24.079Z,7.099
2023-04-16T01:15:25.007Z,7.300
2023-04-16T01:16:23.935Z,6.900
2023-04-16T01:17:24.209Z,7.599
2023-04-16T01:19:24.059Z,7.699
2023-04-16T01:20:23.959Z,7.300
2023-04-16T01:22:23.998Z,6.900
2023-04-16T01:23:24.047Z,7.900
2023-04-16T01:24:23.687Z,7.400
2023-04-16T01:25:23.905Z,7.699
2023-04-16T01:26:23.781Z,7.900
2023-04-16T01:27:24.012Z,7.800
2023-04-16T01:29:23.775Z,7.599
2023-04-16T01:30:24.254Z,7.699
2023-04-16T01:31:28.675Z,8
2023-04-16T01:32:24.134Z,8.600
2023-04-16T01:34:23.822Z,8.100
2023-04-16T01:35:23.829Z,8.5
2023-04-16T01:36:23.999Z,7.800
2023-04-16T01:38:24.288Z,8.800
2023-04-16T01:39:23.282Z,7.5
2023-04-16T01:40:23.731Z,8.5
2023-04-16T01:41:23.804Z,8.699
2023-04-16T01:42:23.521Z,7.900
2023-04-16T01:43:24.086Z,8.399
2023-04-16T01:44:23.661Z,8.199
2023-04-16T01:45:24.660Z,8.600
2023-04-16T01:46:24.027Z,8.300
2023-04-16T01:47:24.189Z,8.5
2023-04-16T01:48:24.273Z,8.600
2023-04-16T01:49:23.652Z,8.699
2023-04-16T01:51:23.880Z,8.399
2023-04-16T01:52:23.945Z,7.300
2023-04-16T01:53:23.966Z,8.300
2023-04-16T01:54:24.231Z,8.100
2023-04-16T01:55:24.263Z,7.099
2023-04-16T01:56:24.187Z,7.900
2023-04-16T01:57:23.792Z,8.699
2023-04-16T01:58:24.176Z,8.100
2023-04-16T01:59:23.613Z,8.899
2023-04-16T02:00:25.317Z,8.199
2023-04-16T02:01:24.321Z,7.800
2023-04-16T02:02:23.853Z,8.399
2023-04-16T02:03:24.013Z,8.199
2023-04-16T02:04:23.776Z,8.399
2023-04-16T02:05:24.443Z,8.600
2023-04-16T02:06:23.728Z,8.5
2023-04-16T02:07:23.886Z,7.900
2023-04-16T02:08:24.005Z,8.399
2023-04-16T02:09:23.518Z,8.199
2023-04-16T02:10:23.704Z,8.100
2023-04-16T02:11:23.478Z,8.199
2023-04-16T02:12:23.375Z,8.300
2023-04-16T02:13:23.457Z,7.400
2023-04-16T02:14:23.261Z,8.199
2023-04-16T02:15:23.554Z,8
2023-04-16T02:16:23.637Z,7.900
2023-04-16T02:17:23.483Z,7.599
2023-04-16T02:18:23.426Z,8.300
2023-04-16T02:19:23.122Z,7.300
2023-04-16T02:20:24.181Z,8
2023-04-16T02:22:26.093Z,8
2023-04-16T02:23:23.658Z,7.900
2023-04-16T02:24:23.207Z,7.599
2023-04-16T02:25:23.655Z,8.100
2023-04-16T02:26:23.688Z,8.300
2023-04-16T02:27:23.386Z,7.599
2023-04-16T02:28:23.336Z,7.800
2023-04-16T02:29:23.001Z,8.100
2023-04-16T02:30:24.326Z,8.199
2023-04-16T02:31:24.074Z,7.900
2023-04-16T02:32:23.369Z,8.100
2023-04-16T02:33:23.699Z,7.300
2023-04-16T02:34:23.203Z,7.900
2023-04-16T02:35:23.341Z,7.400
2023-04-16T02:36:23.155Z,7.5
2023-04-16T02:37:23.410Z,7.400
2023-04-16T02:38:23.293Z,7.900
2023-04-16T02:39:23.522Z,7.599
2023-04-16T02:40:23.802Z,7.800
2023-04-16T02:41:23.094Z,7.400
2023-04-16T02:42:23.752Z,7.5
2023-04-16T02:43:23.516Z,7.300
2023-04-16T02:44:23.020Z,7.599
2023-04-16T02:45:23.883Z,7.199
2023-04-16T02:46:23.488Z,7.900
2023-04-16T02:47:23.192Z,7.699
2023-04-16T02:48:23.875Z,7.900
2023-04-16T02:49:23.166Z,7.400
2023-04-16T02:50:23.516Z,7.599
2023-04-16T02:51:23.592Z,7.400
2023-04-16T02:53:23.860Z,7.599
2023-04-16T02:54:23.637Z,7.900
2023-04-16T02:55:23.380Z,7.5
2023-04-16T02:56:23.460Z,8.199
2023-04-16T02:57:23.205Z,7.5
2023-04-16T02:58:23.754Z,7.800
2023-04-16T02:59:23.493Z,8.199
2023-04-16T03:00:24.712Z,7.5
2023-04-16T03:01:24.139Z,7.099
2023-04-16T03:02:23.376Z,7.400
2023-04-16T03:03:23.623Z,7.5
2023-04-16T03:05:23.877Z,7.199
2023-04-16T03:06:23.889Z,8.5
2023-04-16T03:07:23.434Z,8
2023-04-16T03:08:23.363Z,8.600
2023-04-16T03:09:24.160Z,7.900
2023-04-16T03:11:23.788Z,8.100
2023-04-16T03:13:23.275Z,7.900
2023-04-16T03:14:23.089Z,8
2023-04-16T03:15:23.892Z,8.600
2023-04-16T03:16:23.633Z,7.699
2023-04-16T03:17:23.528Z,8.100
2023-04-16T03:18:23.445Z,8.399
2023-04-16T03:19:23.489Z,8.699
2023-04-16T03:20:23.609Z,8.300
2023-04-16T03:21:23.645Z,8.800
2023-04-16T03:22:23.120Z,8.199
2023-04-16T03:23:23.865Z,8.100
2023-04-16T03:24:23.600Z,9
2023-04-16T03:25:23.831Z,7.800
2023-04-16T03:26:23.851Z,8.899
2023-04-16T03:27:23.397Z,8.399
2023-04-16T03:28:23.347Z,9
2023-04-16T03:29:23.259Z,8.600
2023-04-16T03:30:23.755Z,9
2023-04-16T03:31:23.742Z,8.800
2023-04-16T03:32:23.908Z,8.300
2023-04-16T03:33:23.711Z,8.399
2023-04-16T03:34:23.461Z,8.600
2023-04-16T03:35:23.624Z,8.800
2023-04-16T03:36:23.994Z,8.5
2023-04-16T03:37:23.840Z,8.399
2023-04-16T03:38:23.686Z,9.399
2023-04-16T03:39:24.203Z,8.699
2023-04-16T03:40:24.508Z,9.600
2023-04-16T03:41:23.706Z,9.300
2023-04-16T03:42:23.750Z,9.5
2023-04-16T03:43:23.738Z,9.100
2023-04-16T03:44:24.043Z,9.399
2023-04-16T03:45:23.946Z,8.600
2023-04-16T03:46:23.398Z,9.300
2023-04-16T03:47:23.363Z,9
2023-04-16T03:48:23.734Z,9.100
2023-04-16T03:49:23.560Z,8.800
2023-04-16T03:50:23.506Z,9.399
2023-04-16T03:51:23.609Z,9.300
2023-04-16T03:52:23.271Z,9.600
2023-04-16T03:53:23.832Z,8.699
2023-04-16T03:54:28.355Z,8.399
2023-04-16T03:55:23.412Z,9
2023-04-16T03:56:24.125Z,10.39
2023-04-16T03:57:23.836Z,9.399
2023-04-16T03:58:23.649Z,8.899
2023-04-16T03:59:23.427Z,10
2023-04-16T04:00:29.357Z,10.30
2023-04-16T04:01:23.369Z,9.5
2023-04-16T04:02:24.005Z,9.300
2023-04-16T04:03:24.367Z,9.5
2023-04-16T04:04:24.133Z,9.699
2023-04-16T04:05:23.590Z,10.10
2023-04-16T04:06:23.275Z,9.899
2023-04-16T04:07:23.801Z,9.300
2023-04-16T04:09:23.150Z,10.19
2023-04-16T04:10:24.163Z,9.399
2023-04-16T04:11:23.523Z,9.300
2023-04-16T04:12:23.236Z,9.100
2023-04-16T04:13:23.954Z,8.699
2023-04-16T04:14:37.631Z,9.199
2023-04-16T04:15:23.709Z,9.300
2023-04-16T04:16:23.251Z,8.699
2023-04-16T04:17:23.566Z,9.100
2023-04-16T04:18:23.381Z,8.5
2023-04-16T04:19:23.186Z,8.600
2023-04-16T04:20:38.185Z,9.600
2023-04-16T04:21:23.291Z,9.300
2023-04-16T04:22:23.876Z,9.100
2023-04-16T04:23:23.511Z,9.199
2023-04-16T04:24:23.605Z,9
2023-04-16T04:25:24.008Z,9.100
2023-04-16T04:26:23.728Z,8.100
2023-04-16T04:27:23.288Z,7.800
2023-04-16T04:28:23.212Z,8.5
2023-04-16T04:30:24.490Z,8
2023-04-16T04:31:23.623Z,8.600
2023-04-16T04:32:23.696Z,8.5
2023-04-16T04:33:23.450Z,7.300
2023-04-16T04:34:23.345Z,7.599
2023-04-16T04:35:23.204Z,8.100
2023-04-16T04:37:23.674Z,7.400
2023-04-16T04:38:23.437Z,7.5
2023-04-16T04:39:23.345Z,7
2023-04-16T04:40:23.517Z,8.100
2023-04-16T04:42:23.380Z,7.800
2023-04-16T04:43:23.389Z,7.300
2023-04-16T04:44:23.383Z,7.800
2023-04-16T04:45:24.031Z,7.599
2023-04-16T04:46:23.978Z,8
2023-04-16T04:47:23.881Z,7.5
2023-04-16T04:48:23.698Z,6.800
2023-04-16T04:50:23.638Z,6.900
2023-04-16T04:51:23.194Z,6.699
2023-04-16T04:52:23.847Z,6.900
2023-04-16T04:53:23.023Z,7.599
2023-04-16T04:54:23.804Z,7.400
2023-04-16T04:55:23.563Z,7
2023-04-16T04:57:23.300Z,6.900
2023-04-16T04:58:23.144Z,7.199
2023-04-16T04:59:23.246Z,6.900
2023-04-16T05:00:24.438Z,7.400
2023-04-16T05:01:23.385Z,7.599
2023-04-16T05:02:23.371Z,6.599
2023-04-16T05:03:23.946Z,6.900
2023-04-16T05:04:23.645Z,6.800
2023-04-16T05:05:23.814Z,7.099
2023-04-16T05:06:23.604Z,6.699
2023-04-16T05:08:23.499Z,6.400
2023-04-16T05:09:23.455Z,6.599
2023-04-16T05:10:23.253Z,6.699
2023-04-16T05:11:23.544Z,6.800
2023-04-16T05:12:23.182Z,7
2023-04-16T05:13:24.000Z,6.400
2023-04-16T05:14:23.703Z,6.599
2023-04-16T05:16:23.540Z,6.5
2023-04-16T05:19:23.443Z,6.800
2023-04-16T05:20:23.815Z,7
2023-04-16T05:21:23.115Z,6.300
2023-04-16T05:23:23.554Z,6.099
2023-04-16T05:25:23.414Z,5.900
2023-04-16T05:26:23.410Z,5.699
2023-04-16T05:27:23.292Z,6
2023-04-16T05:28:23.901Z,6.300
2023-04-16T05:29:23.708Z,6.199
2023-04-16T05:30:24.013Z,5.900
2023-04-16T05:31:24.084Z,6.199
2023-04-16T05:32:23.731Z,6.599
2023-04-16T05:33:23.608Z,5.699
2023-04-16T05:34:23.632Z,5.900
2023-04-16T05:35:23.660Z,5.699
2023-04-16T05:36:23.831Z,6.199
2023-04-16T05:37:23.684Z,5.900
2023-04-16T05:38:23.587Z,6.699
2023-04-16T05:39:23.869Z,6.400
2023-04-16T05:40:23.637Z,6.5
2023-04-16T05:41:23.624Z,6.199
2023-04-16T05:42:23.494Z,5.699
2023-04-16T05:43:23.469Z,6.400
2023-04-16T05:44:23.624Z,6.199
2023-04-16T05:45:24.730Z,5.5
2023-04-16T05:46:23.670Z,6
2023-04-16T05:47:23.684Z,6.099
2023-04-16T05:48:24.139Z,6.300
2023-04-16T05:49:23.827Z,5.900
2023-04-16T05:50:24.000Z,6.300
2023-04-16T05:51:23.922Z,6.199
2023-04-16T05:52:23.618Z,6
2023-04-16T05:53:23.732Z,6.599
2023-04-16T05:54:23.895Z,6.099
2023-04-16T05:55:23.782Z,6.199
2023-04-16T05:56:23.693Z,6.099
2023-04-16T05:57:23.927Z,6.199
2023-04-16T05:58:24.070Z,6
2023-04-16T05:59:23.703Z,6.300
2023-04-16T06:00:24.844Z,6.599
2023-04-16T06:01:23.856Z,6
2023-04-16T06:02:23.979Z,6.300
2023-04-16T06:03:23.600Z,5.800
2023-04-16T06:04:23.922Z,6.900
2023-04-16T06:05:24.357Z,6.099
2023-04-16T06:06:23.348Z,6.599
2023-04-16T06:07:23.526Z,6
2023-04-16T06:08:23.970Z,6.300
2023-04-16T06:09:24.251Z,6.400
2023-04-16T06:10:24.218Z,6.5
2023-04-16T06:11:23.304Z,6.300
2023-04-16T06:12:23.322Z,6.800
2023-04-16T06:13:23.312Z,6.400
2023-04-16T06:14:23.774Z,6.300
2023-04-16T06:15:23.593Z,6.800
2023-04-16T06:16:23.846Z,6.699
2023-04-16T06:17:28.611Z,6.599
2023-04-16T06:19:23.602Z,6.5
2023-04-16T06:20:23.868Z,6.400
2023-04-16T06:22:23.751Z,6.099
2023-04-16T06:23:23.805Z,6.5
2023-04-16T06:24:23.832Z,6.800
2023-04-16T06:25:23.779Z,6.900
2023-04-16T06:26:23.861Z,6.5
2023-04-16T06:27:24.383Z,6.099
2023-04-16T06:28:23.862Z,6.699
2023-04-16T06:29:28.020Z,6.800
2023-04-16T06:30:24.158Z,6.599
2023-04-16T06:31:23.330Z,6.800
2023-04-16T06:32:23.860Z,6.5
2023-04-16T06:33:23.602Z,6.199
2023-04-16T06:34:23.583Z,7
2023-04-16T06:35:23.701Z,7.300
2023-04-16T06:36:23.977Z,6.800
2023-04-16T06:37:23.993Z,6.5
2023-04-16T06:38:23.992Z,6.599
2023-04-16T06:39:24.104Z,6.800
2023-04-16T06:40:24.127Z,6
2023-04-16T06:41:24.197Z,6.400
2023-04-16T06:42:23.696Z,6.800
2023-04-16T06:43:24.319Z,6.300
2023-04-16T06:44:23.595Z,6.900
2023-04-16T06:45:24.421Z,7.199
2023-04-16T06:46:23.648Z,6.5
2023-04-16T06:47:24.324Z,6.599
2023-04-16T06:48:23.671Z,6.699
2023-04-16T06:50:23.985Z,6.800
2023-04-16T06:51:42.571Z,6.599
2023-04-16T06:52:23.430Z,7.199
2023-04-16T06:53:23.944Z,7
2023-04-16T06:54:24.349Z,6.599
2023-04-16T06:55:23.742Z,6.699
2023-04-16T06:56:23.578Z,6.800
2023-04-16T06:57:23.890Z,7.400
2023-04-16T06:58:23.643Z,7.300
2023-04-16T06:59:23.491Z,7.400
2023-04-16T07:00:24.651Z,6.5
2023-04-16T07:01:23.885Z,6.699
2023-04-16T07:02:23.994Z,6.5
2023-04-16T07:03:23.247Z,6.800
2023-04-16T07:04:23.566Z,6.599
2023-04-16T07:05:24.018Z,6.800
2023-04-16T07:06:23.575Z,6.099
2023-04-16T07:07:23.564Z,6.900
2023-04-16T07:08:23.223Z,7.099
2023-04-16T07:09:45.922Z,6.5
2023-04-16T07:10:23.652Z,6.599
2023-04-16T07:11:24.237Z,6.199
2023-04-16T07:12:23.986Z,7.099
2023-04-16T07:13:23.795Z,6.900
2023-04-16T07:14:23.601Z,6.699
2023-04-16T07:15:23.566Z,6.400
2023-04-16T07:16:23.509Z,6.900
2023-04-16T07:17:23.966Z,7.300
2023-04-16T07:18:24.003Z,7
2023-04-16T07:20:27.169Z,7
2023-04-16T07:23:23.246Z,6.900
2023-04-16T07:24:23.257Z,6.599
2023-04-16T07:26:23.778Z,6.800
2023-04-16T07:27:23.893Z,6.699
2023-04-16T07:28:23.681Z,6.800
2023-04-16T07:29:23.383Z,6.5
2023-04-16T07:31:23.766Z,6.199
2023-04-16T07:32:23.814Z,6.400
2023-04-16T07:33:23.978Z,6.199
2023-04-16T07:34:23.908Z,6.099
2023-04-16T07:35:23.982Z,6.699
2023-04-16T07:36:23.542Z,6.300
2023-04-16T07:37:23.125Z,6.400
2023-04-16T07:38:24.057Z,6.699
2023-04-16T07:39:23.192Z,5.800
2023-04-16T07:40:23.470Z,6.199
2023-04-16T07:41:23.901Z,6
2023-04-16T07:42:23.703Z,5.5
2023-04-16T07:43:23.836Z,5.800
2023-04-16T07:44:22.985Z,6.099
2023-04-16T07:45:24.713Z,5.800
2023-04-16T07:46:25.031Z,5.900
2023-04-16T07:47:23.830Z,6
2023-04-16T07:48:23.730Z,6.099
2023-04-16T07:49:23.853Z,5.800
2023-04-16T07:50:24.052Z,5.699
2023-04-16T07:51:24.073Z,6.099
2023-04-16T07:52:23.978Z,5.800
2023-04-16T07:53:23.694Z,5.699
2023-04-16T07:54:23.654Z,5.300
2023-04-16T07:55:24.190Z,4.900
2023-04-16T07:56:23.259Z,5.800
2023-04-16T07:57:23.708Z,5.400
2023-04-16T07:58:23.632Z,5.099
2023-04-16T07:59:24.549Z,5.599
2023-04-16T08:00:24.794Z,5.900
2023-04-16T08:02:26.336Z,5.800
2023-04-16T08:04:24.294Z,5.599
2023-04-16T08:05:24.138Z,5.800
2023-04-16T08:06:23.255Z,5.699
2023-04-16T08:07:23.177Z,5.599
2023-04-16T08:08:24.095Z,6.199
2023-04-16T08:09:23.958Z,6.099
2023-04-16T08:10:24.304Z,7.099
2023-04-16T08:11:23.975Z,8
2023-04-16T08:12:23.967Z,7.699
2023-04-16T08:13:23.915Z,9.199
2023-04-16T08:14:23.881Z,9.100
2023-04-16T08:15:24.133Z,9.300
2023-04-16T08:16:23.978Z,9.199
2023-04-16T08:17:23.956Z,10.10
2023-04-16T08:18:23.893Z,9.899
2023-04-16T08:19:23.968Z,9.699
2023-04-16T08:20:24.107Z,10.80
2023-04-16T08:21:23.829Z,10
2023-04-16T08:22:23.710Z,10.89
2023-04-16T08:23:23.631Z,11.10
2023-04-16T08:24:23.944Z,10.69
2023-04-16T08:25:23.852Z,10.30
2023-04-16T08:26:23.761Z,10.60
2023-04-16T08:27:23.886Z,10.69
2023-04-16T08:29:23.702Z,10.80
2023-04-16T08:31:23.895Z,10.89
2023-04-16T08:32:23.668Z,11.30
2023-04-16T08:33:23.736Z,10.89
2023-04-16T08:34:23.554Z,11.30
2023-04-16T08:35:23.738Z,11.39
2023-04-16T08:36:23.636Z,10.89
2023-04-16T08:37:23.579Z,11.30
2023-04-16T08:38:23.760Z,11.39
2023-04-16T08:39:24.201Z,11.19
2023-04-16T08:41:23.376Z,10.5
2023-04-16T08:42:23.956Z,11.69
2023-04-16T08:43:23.924Z,11
2023-04-16T08:44:24.097Z,10.5
2023-04-16T08:45:24.083Z,10.60
2023-04-16T08:46:29.234Z,10.5
2023-04-16T08:47:23.750Z,10.30
2023-04-16T08:49:23.644Z,11
2023-04-16T08:50:24.030Z,10.5
2023-04-16T08:51:23.979Z,10.80
2023-04-16T08:52:23.362Z,9.899
2023-04-16T08:53:23.650Z,10.10
2023-04-16T08:54:23.989Z,10.30
2023-04-16T08:55:24.338Z,10.39
2023-04-16T08:56:32.223Z,10.19
2023-04-16T08:57:23.762Z,10.89
2023-04-16T08:59:23.982Z,10.69
2023-04-16T09:00:24.417Z,10.60
2023-04-16T09:01:23.958Z,10.89
2023-04-16T09:02:24.090Z,11.69
2023-04-16T09:03:23.761Z,10.5
2023-04-16T09:04:24.102Z,11.5
2023-04-16T09:05:23.857Z,11.89
2023-04-16T09:06:23.770Z,11.60
2023-04-16T09:07:23.664Z,11.5
2023-04-16T09:09:24.015Z,11.30
2023-04-16T09:10:23.827Z,11.60
2023-04-16T09:11:23.706Z,11.69
2023-04-16T09:12:23.670Z,11.5
2023-04-16T09:13:23.915Z,12
2023-04-16T09:14:37.655Z,11.69
2023-04-16T09:15:23.674Z,12
2023-04-16T09:16:23.571Z,11.30
2023-04-16T09:17:23.685Z,12
2023-04-16T09:18:23.805Z,13.19
2023-04-16T09:19:23.849Z,14.60
2023-04-16T09:20:24.181Z,13.60
2023-04-16T09:21:24.002Z,13.5
2023-04-16T09:22:23.769Z,13.69
2023-04-16T09:23:23.625Z,13.10
2023-04-16T09:24:24.014Z,12.89
2023-04-16T09:25:24.110Z,12.60
2023-04-16T09:26:23.989Z,13.5
2023-04-16T09:27:26.019Z,14.39
2023-04-16T09:28:23.270Z,13.80
2023-04-16T09:29:23.655Z,13.60
2023-04-16T09:30:23.955Z,13.5
2023-04-16T09:31:24.018Z,13.80
2023-04-16T09:32:23.811Z,12.89
2023-04-16T09:34:23.855Z,13
2023-04-16T09:35:23.946Z,13.69
2023-04-16T09:36:24.304Z,14.39
2023-04-16T09:37:23.982Z,14
2023-04-16T09:38:24.158Z,13.89
2023-04-16T09:39:23.957Z,13
2023-04-16T09:40:23.852Z,14.10
2023-04-16T09:42:23.853Z,13.5
2023-04-16T09:43:23.830Z,14.10
2023-04-16T09:44:23.797Z,13.69
2023-04-16T09:45:24.535Z,13.10
2023-04-16T09:46:23.579Z,13.80
2023-04-16T09:47:24.161Z,14
2023-04-16T09:48:24.067Z,13.30
2023-04-16T09:49:23.920Z,12.60
2023-04-16T09:50:24.335Z,13.10
2023-04-16T09:51:23.615Z,12
2023-04-16T09:52:23.831Z,12.69
2023-04-16T09:53:24.159Z,12.39
2023-04-16T09:54:23.754Z,12.89
2023-04-16T09:55:24.391Z,12.10
2023-04-16T09:56:23.368Z,12.19
2023-04-16T09:57:23.330Z,12.5
2023-04-16T09:58:23.544Z,13
2023-04-16T09:59:23.812Z,13.19
2023-04-16T10:01:27.879Z,15.10
2023-04-16T10:02:24.293Z,15.39
2023-04-16T10:03:23.729Z,15.5
2023-04-16T10:04:24.248Z,14.69
2023-04-16T10:05:24.319Z,15.69
2023-04-16T10:06:23.816Z,15.10
2023-04-16T10:07:23.687Z,15
2023-04-16T10:08:23.879Z,16.10
2023-04-16T10:10:23.820Z,15.39
2023-04-16T10:11:24.196Z,15.89
2023-04-16T10:12:24.082Z,16.29
2023-04-16T10:13:24.055Z,18.20
2023-04-16T10:15:24.660Z,16.89
2023-04-16T10:16:23.789Z,17.89
2023-04-16T10:17:23.595Z,17.20
2023-04-16T10:18:23.984Z,18.10
2023-04-16T10:19:24.524Z,17.79
2023-04-16T10:20:23.752Z,18.10
2023-04-16T10:21:24.335Z,18.79
2023-04-16T10:22:23.311Z,18.60
2023-04-16T10:23:23.255Z,18
2023-04-16T10:24:23.580Z,18.10
2023-04-16T10:25:24.032Z,18.79
2023-04-16T10:26:23.573Z,20
2023-04-16T10:27:24.079Z,20.29
2023-04-16T10:28:24.046Z,19.10
2023-04-16T10:29:23.958Z,20.70
2023-04-16T10:30:23.622Z,20
2023-04-16T10:31:23.604Z,19.60
2023-04-16T10:34:24.012Z,19.70
2023-04-16T10:35:23.441Z,21.5
2023-04-16T10:37:24.062Z,19.89
2023-04-16T10:38:24.086Z,21.20
2023-04-16T10:39:23.555Z,20.5
2023-04-16T10:40:23.932Z,19.79
2023-04-16T10:41:24.087Z,21.10
2023-04-16T10:42:24.190Z,20.60
2023-04-16T10:43:23.542Z,21.5
2023-04-16T10:44:23.546Z,20.20
2023-04-16T10:45:23.829Z,19.89
2023-04-16T10:46:23.964Z,19.5
2023-04-16T10:47:24.274Z,19.39
2023-04-16T10:48:23.569Z,18.29
2023-04-16T10:49:23.685Z,19
2023-04-16T10:50:24.082Z,17.79
2023-04-16T10:51:23.214Z,18.20
2023-04-16T10:52:23.430Z,19
2023-04-16T10:53:23.598Z,18.79
2023-04-16T10:54:23.588Z,19.79
2023-04-16T10:55:24.065Z,19
2023-04-16T10:56:24.070Z,18.20
2023-04-16T10:57:24.135Z,19.89
2023-04-16T10:59:26.954Z,21
2023-04-16T11:00:25.224Z,21.20
2023-04-16T11:01:23.701Z,21.5
2023-04-16T11:02:25.267Z,23.5
2023-04-16T11:03:23.735Z,26
2023-04-16T11:04:24.438Z,25.39
2023-04-16T11:05:23.830Z,24.60
2023-04-16T11:06:23.733Z,26.89
2023-04-16T11:07:23.615Z,29.10
2023-04-16T11:08:24.731Z,29.29
2023-04-16T11:09:29.131Z,28.60
2023-04-16T11:10:23.699Z,28.10
2023-04-16T11:11:23.825Z,27.89
2023-04-16T11:12:23.904Z,29.20
2023-04-16T11:13:23.701Z,28.29
2023-04-16T11:15:29.106Z,27.20
2023-04-16T11:16:23.456Z,27.60
2023-04-16T11:17:23.634Z,27.5
2023-04-16T11:18:23.816Z,27.20
2023-04-16T11:19:23.901Z,26.79
2023-04-16T11:20:24.722Z,26.29
2023-04-16T11:21:23.526Z,27.29
2023-04-16T11:22:23.771Z,27.20
2023-04-16T11:23:31.646Z,26.60
2023-04-16T11:24:25.630Z,27.60
2023-04-16T11:25:23.608Z,27.29
2023-04-16T11:27:23.737Z,27.70
2023-04-16T11:28:24.370Z,26.29
2023-04-16T11:29:23.767Z,25.89
2023-04-16T11:30:24.295Z,25.60
2023-04-16T11:31:23.741Z,25
2023-04-16T11:32:23.759Z,24.5
2023-04-16T11:33:23.576Z,23.79
2023-04-16T11:34:23.760Z,23.5
2023-04-16T11:35:24.055Z,23.70
2023-04-16T11:36:26.231Z,23.89
2023-04-16T11:37:37.794Z,24.10
2023-04-16T11:38:23.727Z,22.89
2023-04-16T11:39:23.607Z,22
2023-04-16T11:41:23.768Z,21.20
2023-04-16T11:42:23.644Z,22
2023-04-16T11:43:23.627Z,21.29
2023-04-16T11:44:24.028Z,22.20
2023-04-16T11:45:24.679Z,21.60
2023-04-16T11:46:27.290Z,21
2023-04-16T11:47:24.116Z,20.79
2023-04-16T11:48:24.183Z,20.70
2023-04-16T11:49:23.437Z,20.89
2023-04-16T11:50:23.719Z,22.20
2023-04-16T11:51:24.195Z,21.79
2023-04-16T11:52:24.341Z,20.79
2023-04-16T11:53:23.415Z,21.20
2023-04-16T11:54:23.743Z,21.39
2023-04-16T11:55:23.896Z,21.70
2023-04-16T11:56:23.899Z,20
2023-04-16T11:57:23.232Z,20.5
2023-04-16T11:58:23.615Z,20
2023-04-16T11:59:23.746Z,20.70
2023-04-16T12:00:25.392Z,21.20
2023-04-16T12:01:23.325Z,20.79
2023-04-16T12:02:23.618Z,20.5
2023-04-16T12:03:23.603Z,19.70
2023-04-16T12:04:23.428Z,20.5
2023-04-16T12:05:23.833Z,18.89
2023-04-16T12:06:24.477Z,19.10
2023-04-16T12:07:23.382Z,19.5
2023-04-16T12:08:23.696Z,20
2023-04-16T12:09:23.752Z,19.79
2023-04-16T12:10:24.585Z,19.70
2023-04-16T12:11:23.323Z,19.89
2023-04-16T12:12:23.438Z,20.29
2023-04-16T12:13:23.508Z,20.60
2023-04-16T12:14:23.322Z,20.79
2023-04-16T12:15:23.630Z,21.5
2023-04-16T12:16:23.786Z,21.10
2023-04-16T12:17:24.229Z,20.70
2023-04-16T12:18:23.292Z,21.20
2023-04-16T12:19:23.521Z,20.5
2023-04-16T12:20:24.263Z,21
2023-04-16T12:21:23.466Z,20.60
2023-04-16T12:23:23.563Z,20.89
2023-04-16T12:24:24.050Z,21.20
2023-04-16T12:25:24.161Z,20.70
2023-04-16T12:26:23.335Z,21.29
2023-04-16T12:27:23.519Z,21.79
2023-04-16T12:28:23.705Z,22.39
2023-04-16T12:29:24.086Z,22.29
2023-04-16T12:30:23.389Z,22.5
2023-04-16T12:31:23.572Z,21.79
2023-04-16T12:32:23.747Z,21.10
2023-04-16T12:33:23.238Z,21.29
2023-04-16T12:34:28.845Z,20.60
2023-04-16T12:35:26.073Z,22.10
2023-04-16T12:36:23.947Z,22.5
2023-04-16T12:37:23.860Z,21.29
2023-04-16T12:38:24.751Z,22.10
2023-04-16T12:39:23.761Z,21.79
2023-04-16T12:41:23.388Z,22.89
2023-04-16T12:42:23.671Z,21.89
2023-04-16T12:43:23.468Z,21.20
2023-04-16T12:44:23.464Z,21.5
2023-04-16T12:45:23.608Z,22.20
2023-04-16T12:46:24.498Z,21
2023-04-16T12:47:24.202Z,21.60
2023-04-16T12:48:23.229Z,20.70
2023-04-16T12:49:23.563Z,21.29
2023-04-16T12:50:24.730Z,20.29
2023-04-16T12:51:45.766Z,21.39
2023-04-16T12:52:23.946Z,21.10
2023-04-16T12:53:23.765Z,21.39
2023-04-16T12:54:23.816Z,21.89
2023-04-16T12:55:23.870Z,21.60
2023-04-16T12:56:23.683Z,21
2023-04-16T12:57:23.994Z,20.20
2023-04-16T12:58:23.763Z,19.89
2023-04-16T12:59:23.683Z,20.39
2023-04-16T13:00:25.206Z,20.70
2023-04-16T13:01:23.939Z,20
2023-04-16T13:02:23.737Z,19.79
2023-04-16T13:03:24.315Z,19.60
2023-04-16T13:04:25.615Z,20
2023-04-16T13:05:23.702Z,20.39
2023-04-16T13:06:23.969Z,20
2023-04-16T13:07:24.325Z,20.39
2023-04-16T13:08:23.337Z,20.79
2023-04-16T13:09:23.619Z,20.89
2023-04-16T13:10:23.921Z,19.79
2023-04-16T13:11:23.586Z,20.10
2023-04-16T13:12:23.883Z,19.89
2023-04-16T13:14:24.254Z,19
2023-04-16T13:15:24.503Z,19.20
2023-04-16T13:16:24.054Z,19.79
2023-04-16T13:17:23.344Z,19.29
2023-04-16T13:18:23.598Z,18.89
2023-04-16T13:19:23.777Z,18.5
2023-04-16T13:20:24.718Z,18.10
2023-04-16T13:21:23.881Z,18.70
2023-04-16T13:22:23.570Z,18.79
2023-04-16T13:23:23.542Z,19.29
2023-04-16T13:24:23.741Z,19.10
2023-04-16T13:25:23.959Z,18.20
2023-04-16T13:27:23.844Z,19
2023-04-16T13:28:24.592Z,18.70
2023-04-16T13:29:24.518Z,18.60
2023-04-16T13:30:25.072Z,18.29
2023-04-16T13:31:23.853Z,18.70
2023-04-16T13:32:23.700Z,19.60
2023-04-16T13:33:23.823Z,19
2023-04-16T13:34:28.483Z,18.5
2023-04-16T13:35:24.011Z,19.10
2023-04-16T13:36:25.072Z,17.60
2023-04-16T13:37:23.281Z,19.10
2023-04-16T13:38:23.733Z,19.39
2023-04-16T13:39:23.966Z,19.10
2023-04-16T13:40:23.545Z,18.20
2023-04-16T13:41:23.613Z,18.39
2023-04-16T13:42:23.603Z,18.5
2023-04-16T13:43:23.780Z,17.70
2023-04-16T13:44:24.229Z,18.5
2023-04-16T13:45:24.178Z,18.60
2023-04-16T13:46:23.933Z,18.20
2023-04-16T13:47:24.138Z,18
2023-04-16T13:48:23.468Z,17.60
2023-04-16T13:49:23.918Z,17.5
2023-04-16T13:50:32.340Z,17.89
2023-04-16T13:51:23.465Z,16.89
2023-04-16T13:52:23.781Z,16.70
2023-04-16T13:53:23.956Z,16.79
2023-04-16T13:55:23.452Z,16.89
2023-04-16T13:56:23.968Z,16.39
2023-04-16T13:57:23.710Z,15.10
2023-04-16T13:58:24.104Z,16.70
2023-04-16T13:59:23.560Z,15.89
2023-04-16T14:00:24.793Z,16.10
2023-04-16T14:03:23.751Z,17.20
2023-04-16T14:04:23.948Z,15.60
2023-04-16T14:05:27.032Z,15.80
2023-04-16T14:06:23.516Z,15.60
2023-04-16T14:07:23.687Z,16.70
2023-04-16T14:08:43.280Z,17
2023-04-16T14:09:23.504Z,17.5
2023-04-16T14:10:23.982Z,16
2023-04-16T14:11:24.082Z,15.5